createdAt,value
2022-08-24T00:01:18.264Z,91.00
2022-08-24T00:04:17.446Z,79.30
2022-08-24T00:10:22.079Z,74.10
2022-08-24T00:13:48.449Z,66.90
2022-08-24T00:16:53.199Z,67.30
2022-08-24T00:26:53.122Z,65.50
2022-08-24T00:29:27.918Z,69.00
2022-08-24T00:33:14.987Z,71.30
2022-08-24T00:36:16.844Z,68.20
2022-08-24T00:40:02.284Z,69.40
2022-08-24T00:43:49.658Z,63.80
2022-08-24T01:00:24.691Z,77.20
2022-08-24T01:04:13.390Z,81.20
2022-08-24T01:06:53.280Z,80.90
2022-08-24T01:12:37.877Z,81.10
2022-08-24T01:15:36.910Z,88.20
2022-08-24T01:18:37.839Z,90.40
2022-08-24T01:21:26.299Z,85.20
2022-08-24T01:24:28.386Z,79.60
2022-08-24T01:27:29.435Z,83.40
2022-08-24T01:31:21.559Z,84.70
2022-08-24T01:34:02.305Z,83.30
2022-08-24T01:36:48.413Z,82.60
2022-08-24T01:42:31.365Z,78.20
2022-08-24T01:45:35.864Z,72.90
2022-08-24T01:52:25.375Z,85.90
2022-08-24T01:55:23.853Z,80.20
2022-08-24T01:58:47.002Z,82.30
2022-08-24T02:04:48.301Z,89.00
2022-08-24T02:07:27.083Z,77.00
2022-08-24T02:10:56.979Z,83.10
2022-08-24T02:16:55.222Z,74.10
2022-08-24T02:19:37.498Z,80.90
2022-08-24T02:22:14.631Z,74.30
2022-08-24T02:25:22.108Z,80.80
2022-08-24T02:31:24.493Z,74.30
2022-08-24T02:34:50.741Z,72.00
2022-08-24T02:37:35.480Z,65.40
2022-08-24T02:40:44.949Z,63.10
2022-08-24T02:43:47.105Z,64.70
2022-08-24T02:46:53.477Z,63.40
2022-08-24T02:53:14.054Z,61.10
2022-08-24T02:55:47.562Z,52.70
2022-08-24T02:58:25.208Z,54.10
2022-08-24T03:01:05.720Z,56.00
2022-08-24T03:03:54.651Z,55.90
2022-08-24T03:06:56.711Z,52.60
2022-08-24T03:10:19.241Z,51.40
2022-08-24T03:13:05.918Z,47.60
2022-08-24T03:15:48.112Z,53.30
2022-08-24T03:18:29.002Z,52.30
2022-08-24T03:21:27.238Z,54.40
2022-08-24T03:24:04.047Z,56.00
2022-08-24T03:27:03.907Z,49.60
2022-08-24T03:33:33.561Z,47.20
2022-08-24T03:36:39.013Z,45.60
2022-08-24T03:39:12.595Z,47.10
2022-08-24T03:46:00.774Z,49.00
2022-08-24T03:49:00.382Z,47.50
2022-08-24T03:54:36.963Z,48.80
2022-08-24T03:57:38.760Z,43.50
2022-08-24T04:00:44.053Z,44.10
2022-08-24T04:03:23.675Z,48.00
2022-08-24T04:06:03.706Z,47.80
2022-08-24T04:09:06.340Z,51.10
2022-08-24T04:12:27.538Z,55.90
2022-08-24T04:15:29.335Z,53.70
2022-08-24T04:18:09.205Z,54.10
2022-08-24T04:20:46.233Z,52.90
2022-08-24T04:23:47.984Z,56.50
2022-08-24T04:26:55.541Z,55.00
2022-08-24T04:29:33.011Z,54.00
2022-08-24T04:39:29.267Z,55.60
2022-08-24T04:42:10.079Z,50.90
2022-08-24T04:48:04.202Z,47.00
2022-08-24T04:54:36.594Z,43.40
2022-08-24T04:57:18.294Z,44.70
2022-08-24T05:03:21.583Z,40.50
2022-08-24T05:05:58.955Z,40.00
2022-08-24T05:08:37.994Z,40.70
2022-08-24T05:11:16.410Z,39.40
2022-08-24T05:14:18.580Z,38.20
2022-08-24T05:16:55.493Z,40.80
2022-08-24T05:20:42.085Z,38.40
2022-08-24T05:23:47.139Z,40.30
2022-08-24T05:26:46.962Z,41.20
2022-08-24T05:29:27.090Z,40.00
2022-08-24T05:32:03.153Z,37.00
2022-08-24T05:34:45.474Z,34.90
2022-08-24T05:37:23.668Z,34.70
2022-08-24T05:40:20.079Z,35.50
2022-08-24T05:43:46.742Z,36.90
2022-08-24T05:46:50.099Z,36.30
2022-08-24T05:49:28.678Z,36.20
2022-08-24T05:52:02.976Z,35.30
2022-08-24T05:54:43.070Z,30.80
2022-08-24T05:57:19.808Z,34.00
2022-08-24T06:03:44.780Z,32.00
2022-08-24T06:06:48.917Z,27.40
2022-08-24T06:13:13.767Z,28.00
2022-08-24T06:16:10.883Z,25.20
2022-08-24T06:19:32.559Z,25.20
2022-08-24T06:22:13.432Z,25.00
2022-08-24T06:25:05.042Z,26.30
2022-08-24T06:35:46.626Z,21.00
2022-08-24T06:38:23.199Z,22.00
2022-08-24T06:41:49.303Z,21.90
2022-08-24T06:44:24.536Z,23.60
2022-08-24T06:50:03.542Z,20.10
2022-08-24T06:52:36.816Z,20.10
2022-08-24T06:55:42.030Z,18.50
2022-08-24T06:58:44.311Z,19.60
2022-08-24T07:01:44.117Z,17.80
2022-08-24T07:04:27.579Z,19.70
2022-08-24T07:07:04.293Z,19.10
2022-08-24T07:10:35.619Z,18.30
2022-08-24T07:13:14.072Z,17.50
2022-08-24T07:15:59.699Z,18.20
2022-08-24T07:25:54.196Z,16.00
2022-08-24T07:28:33.732Z,14.40
2022-08-24T07:31:15.428Z,17.70
2022-08-24T07:34:34.968Z,18.60
2022-08-24T07:37:11.085Z,18.60
2022-08-24T07:39:48.046Z,18.00
2022-08-24T07:43:11.573Z,18.00
2022-08-24T07:45:53.734Z,17.00
2022-08-24T07:48:31.842Z,18.60
2022-08-24T07:55:06.810Z,17.90
2022-08-24T07:58:08.580Z,18.50
2022-08-24T08:00:41.050Z,18.10
2022-08-24T08:03:19.283Z,18.20
2022-08-24T08:06:16.192Z,18.20
2022-08-24T08:09:43.560Z,15.80
2022-08-24T08:13:13.302Z,18.20
2022-08-24T08:15:59.944Z,17.20
2022-08-24T08:18:38.925Z,15.00
2022-08-24T08:21:39.385Z,19.20
2022-08-24T08:24:20.841Z,18.30
2022-08-24T08:27:51.940Z,23.90
2022-08-24T08:30:52.363Z,18.10
2022-08-24T08:33:34.123Z,16.70
2022-08-24T08:36:59.853Z,19.40
2022-08-24T08:40:05.750Z,17.10
2022-08-24T08:53:51.907Z,16.40
2022-08-24T08:56:39.104Z,18.50
2022-08-24T09:00:08.494Z,17.80
2022-08-24T09:11:09.142Z,20.60
2022-08-24T09:13:55.829Z,17.20
2022-08-24T09:17:16.852Z,21.30
2022-08-24T09:20:10.351Z,20.80
2022-08-24T09:23:15.507Z,21.40
2022-08-24T09:26:19.849Z,20.60
2022-08-24T09:32:46.712Z,16.40
2022-08-24T09:36:20.151Z,16.00
2022-08-24T09:40:03.621Z,18.30
2022-08-24T09:43:22.782Z,16.00
2022-08-24T09:57:44.308Z,15.80
2022-08-24T10:00:25.093Z,18.50
2022-08-24T10:03:03.131Z,17.30
2022-08-24T10:06:01.376Z,17.70
2022-08-24T10:08:47.341Z,15.40
2022-08-24T10:11:26.929Z,18.10
2022-08-24T10:14:05.113Z,21.60
2022-08-24T10:16:42.819Z,19.80
2022-08-24T10:19:41.941Z,18.70
2022-08-24T10:22:26.663Z,23.30
2022-08-24T10:25:19.038Z,23.00
2022-08-24T10:28:04.662Z,24.60
2022-08-24T10:31:03.920Z,21.30
2022-08-24T10:33:42.126Z,19.00
2022-08-24T10:36:59.790Z,22.80
2022-08-24T10:40:06.136Z,19.20
2022-08-24T10:43:25.892Z,20.30
2022-08-24T10:46:36.797Z,19.10
2022-08-24T10:49:35.001Z,15.60
2022-08-24T10:52:39.856Z,18.20
2022-08-24T10:55:20.670Z,20.20
2022-08-24T10:58:23.200Z,17.40
2022-08-24T11:00:57.681Z,15.90
2022-08-24T11:03:32.174Z,19.40
2022-08-24T11:06:17.945Z,18.00
2022-08-24T11:08:58.555Z,15.90
2022-08-24T11:11:34.584Z,19.90
2022-08-24T11:14:09.917Z,24.50
2022-08-24T11:16:45.670Z,18.90
2022-08-24T11:19:35.172Z,20.10
2022-08-24T11:22:25.133Z,19.60
2022-08-24T11:25:01.999Z,20.90
2022-08-24T11:27:38.650Z,20.00
2022-08-24T11:30:17.137Z,21.10
2022-08-24T11:32:52.965Z,19.80
2022-08-24T11:35:28.983Z,21.70
2022-08-24T11:38:15.815Z,21.10
2022-08-24T11:40:54.211Z,20.30
2022-08-24T11:43:37.485Z,22.80
2022-08-24T11:46:21.923Z,20.10
2022-08-24T11:49:03.107Z,22.50
2022-08-24T11:51:47.558Z,21.70
2022-08-24T11:54:32.775Z,20.70
2022-08-24T11:57:15.776Z,21.20
2022-08-24T12:00:04.373Z,18.60
2022-08-24T12:02:40.926Z,20.80
2022-08-24T12:05:24.435Z,20.30
2022-08-24T12:08:08.967Z,18.90
2022-08-24T12:10:46.922Z,20.90
2022-08-24T12:13:31.495Z,25.40
2022-08-24T12:16:10.708Z,21.40
2022-08-24T12:18:53.522Z,16.00
2022-08-24T12:21:29.274Z,17.60
2022-08-24T12:24:05.692Z,21.80
2022-08-24T12:26:41.602Z,22.10
2022-08-24T12:29:17.527Z,23.20
2022-08-24T12:31:54.418Z,22.90
2022-08-24T12:34:33.561Z,21.10
2022-08-24T12:37:16.172Z,17.00
2022-08-24T12:39:55.908Z,21.50
2022-08-24T12:42:35.167Z,17.10
2022-08-24T12:45:10.727Z,21.00
2022-08-24T12:47:48.543Z,21.60
2022-08-24T12:50:28.375Z,21.80
2022-08-24T12:53:30.288Z,21.80
2022-08-24T12:56:33.643Z,22.50
2022-08-24T12:59:26.034Z,18.40
2022-08-24T13:02:04.282Z,20.50
2022-08-24T13:04:41.657Z,19.10
2022-08-24T13:07:27.996Z,22.20
2022-08-24T13:10:14.839Z,22.50
2022-08-24T13:13:11.104Z,20.60
2022-08-24T13:16:03.469Z,22.00
2022-08-24T13:19:12.716Z,25.40
2022-08-24T13:21:54.982Z,21.00
2022-08-24T13:24:57.741Z,24.30
2022-08-24T13:27:57.195Z,25.20
2022-08-24T13:30:36.547Z,24.00
2022-08-24T13:33:15.107Z,23.60
2022-08-24T13:36:19.665Z,18.00
2022-08-24T13:39:03.269Z,21.80
2022-08-24T13:41:51.181Z,20.60
2022-08-24T13:44:53.390Z,18.00
2022-08-24T13:47:32.519Z,23.50
2022-08-24T13:50:12.392Z,18.60
2022-08-24T13:52:56.788Z,25.30
2022-08-24T13:55:36.109Z,16.90
2022-08-24T13:58:28.019Z,21.50
2022-08-24T14:01:04.399Z,21.80
2022-08-24T14:03:55.458Z,14.00
2022-08-24T14:06:40.233Z,22.90
2022-08-24T14:09:23.629Z,17.40
2022-08-24T14:12:17.454Z,20.60
2022-08-24T14:15:00.178Z,17.90
2022-08-24T14:17:56.124Z,13.90
2022-08-24T14:21:18.097Z,21.20
2022-08-24T14:24:27.866Z,20.60
2022-08-24T14:27:39.040Z,17.50
2022-08-24T14:31:00.228Z,24.60
2022-08-24T14:33:42.847Z,25.70
2022-08-24T14:39:57.705Z,23.10
2022-08-24T14:43:21.338Z,26.00
2022-08-24T14:46:44.656Z,24.40
2022-08-24T14:50:12.680Z,20.40
2022-08-24T14:56:07.519Z,26.60
2022-08-24T14:58:58.526Z,20.70
2022-08-24T15:01:49.583Z,17.60
2022-08-24T15:07:48.748Z,16.00
2022-08-24T15:10:34.453Z,17.10
2022-08-24T15:14:25.762Z,15.50
2022-08-24T15:17:56.807Z,16.10
2022-08-24T15:21:00.358Z,18.00
2022-08-24T15:24:16.617Z,17.40
2022-08-24T15:27:15.967Z,16.40
2022-08-24T15:34:27.059Z,19.40
2022-08-24T15:37:29.371Z,19.10
2022-08-24T15:40:48.543Z,14.70
2022-08-24T15:43:48.390Z,17.70
2022-08-24T15:46:49.347Z,14.60
2022-08-24T15:49:59.261Z,18.50
2022-08-24T15:53:15.402Z,17.50
2022-08-24T16:02:53.206Z,22.70
2022-08-24T16:06:06.084Z,18.10
2022-08-24T16:09:00.938Z,20.70
2022-08-24T16:11:46.974Z,20.30
2022-08-24T16:14:48.896Z,20.10
2022-08-24T16:20:37.798Z,23.70
2022-08-24T16:23:40.855Z,23.40
2022-08-24T16:29:56.530Z,19.70
2022-08-24T16:32:53.353Z,22.70
2022-08-24T16:35:59.825Z,21.10
2022-08-24T16:39:22.752Z,25.50
2022-08-24T16:42:30.514Z,23.40
2022-08-24T16:45:25.978Z,27.50
2022-08-24T16:51:10.599Z,29.60
2022-08-24T16:53:53.967Z,21.50
2022-08-24T16:57:17.497Z,20.70
2022-08-24T17:00:19.335Z,25.20
2022-08-24T17:03:04.214Z,24.60
2022-08-24T17:09:24.854Z,23.10
2022-08-24T17:12:32.854Z,19.80
2022-08-24T17:15:59.099Z,25.20
2022-08-24T17:22:20.720Z,20.80
2022-08-24T17:25:46.784Z,23.10
2022-08-24T17:32:01.199Z,18.80
2022-08-24T17:34:44.673Z,14.90
2022-08-24T17:37:24.913Z,11.70
2022-08-24T17:40:35.623Z,11.80
2022-08-24T17:43:35.598Z,9.90
2022-08-24T17:46:08.679Z,11.30
2022-08-24T17:48:40.916Z,9.40
2022-08-24T17:51:15.574Z,11.80
2022-08-24T17:53:47.621Z,10.90
2022-08-24T17:56:22.290Z,12.20
2022-08-24T17:59:14.184Z,9.80
2022-08-24T18:01:52.531Z,9.90
2022-08-24T18:04:30.078Z,11.90
2022-08-24T18:07:13.630Z,9.60
2022-08-24T18:09:49.701Z,11.50
2022-08-24T18:12:26.613Z,13.20
2022-08-24T18:15:00.156Z,11.40
2022-08-24T18:17:39.503Z,10.50
2022-08-24T18:20:18.583Z,12.10
2022-08-24T18:22:50.687Z,11.00
2022-08-24T18:25:28.513Z,20.00
2022-08-24T18:28:03.273Z,12.40
2022-08-24T18:30:37.396Z,17.50
2022-08-24T18:33:09.450Z,18.10
2022-08-24T18:35:42.026Z,16.90
2022-08-24T18:38:14.901Z,13.60
2022-08-24T18:40:52.830Z,16.40
2022-08-24T18:43:29.297Z,11.40
2022-08-24T18:46:05.203Z,10.30
2022-08-24T18:48:39.087Z,11.70
2022-08-24T18:51:27.826Z,14.00
2022-08-24T18:54:15.868Z,12.60
2022-08-24T18:56:47.964Z,10.00
2022-08-24T18:59:24.017Z,9.70
2022-08-24T19:02:15.694Z,10.40
2022-08-24T19:04:52.345Z,10.70
2022-08-24T19:07:25.929Z,9.90
2022-08-24T19:09:59.728Z,9.30
2022-08-24T19:12:46.835Z,9.30
2022-08-24T19:15:31.989Z,9.70
2022-08-24T19:18:13.005Z,9.40
2022-08-24T19:20:50.980Z,8.10
2022-08-24T19:23:30.638Z,7.50
2022-08-24T19:26:07.769Z,7.70
2022-08-24T19:28:43.828Z,8.30
2022-08-24T19:31:16.869Z,9.70
2022-08-24T19:33:51.854Z,6.20
2022-08-24T19:36:26.659Z,7.60
2022-08-24T19:39:03.450Z,6.40
2022-08-24T19:41:45.139Z,10.60
2022-08-24T19:44:38.706Z,8.50
2022-08-24T19:47:12.821Z,6.50
2022-08-24T19:49:47.254Z,11.70
2022-08-24T19:52:19.987Z,9.70
2022-08-24T19:54:51.852Z,9.90
2022-08-24T19:57:44.652Z,7.70
2022-08-24T20:00:38.578Z,9.40
2022-08-24T20:03:15.474Z,7.40
2022-08-24T20:05:48.772Z,11.70
2022-08-24T20:08:27.819Z,9.80
2022-08-24T20:11:03.597Z,11.90
2022-08-24T20:13:41.618Z,8.40
2022-08-24T20:16:17.623Z,10.70
2022-08-24T20:18:52.313Z,10.50
2022-08-24T20:21:28.308Z,9.60
2022-08-24T20:24:02.874Z,9.40
2022-08-24T20:26:44.357Z,8.90
2022-08-24T20:29:16.977Z,10.00
2022-08-24T20:31:52.647Z,12.50
2022-08-24T20:34:24.887Z,10.80
2022-08-24T20:37:01.816Z,8.50
2022-08-24T20:39:34.543Z,10.40
2022-08-24T20:42:12.219Z,7.60
2022-08-24T20:44:48.141Z,10.90
2022-08-24T20:47:22.092Z,7.50
2022-08-24T20:49:55.780Z,8.30
2022-08-24T20:52:27.732Z,10.60
2022-08-24T20:55:03.913Z,11.90
2022-08-24T20:57:37.771Z,10.40
2022-08-24T21:00:13.770Z,11.30
2022-08-24T21:02:46.173Z,12.10
2022-08-24T21:05:19.582Z,8.60
2022-08-24T21:07:51.820Z,9.30
2022-08-24T21:10:27.419Z,11.30
2022-08-24T21:13:00.514Z,15.50
2022-08-24T21:15:33.117Z,13.00
2022-08-24T21:18:05.315Z,12.50
2022-08-24T21:20:38.540Z,11.70
2022-08-24T21:23:18.683Z,11.90
2022-08-24T21:25:50.689Z,12.80
2022-08-24T21:28:23.952Z,12.60
2022-08-24T21:30:56.804Z,15.60
2022-08-24T21:33:47.841Z,15.60
2022-08-24T21:36:20.654Z,15.20
2022-08-24T21:38:54.757Z,15.40
2022-08-24T21:41:29.502Z,11.10
2022-08-24T21:44:01.656Z,13.20
2022-08-24T21:46:36.895Z,14.80
2022-08-24T21:49:12.121Z,12.70
2022-08-24T21:51:44.431Z,11.10
2022-08-24T21:54:17.790Z,13.20
2022-08-24T21:56:50.889Z,15.20
2022-08-24T21:59:23.169Z,14.20
2022-08-24T22:01:55.398Z,17.00
2022-08-24T22:04:28.133Z,13.60
2022-08-24T22:07:02.948Z,10.50
2022-08-24T22:09:35.383Z,13.90
2022-08-24T22:12:11.654Z,12.50
2022-08-24T22:14:45.796Z,12.70
2022-08-24T22:17:18.008Z,15.30
2022-08-24T22:19:52.152Z,13.70
2022-08-24T22:22:24.385Z,13.80
2022-08-24T22:24:56.322Z,21.30
2022-08-24T22:27:28.494Z,15.90
2022-08-24T22:30:00.670Z,20.40
2022-08-24T22:32:32.719Z,16.00
2022-08-24T22:35:09.317Z,16.20
2022-08-24T22:37:42.902Z,18.90
2022-08-24T22:40:17.393Z,13.80
2022-08-24T22:42:52.381Z,20.00
2022-08-24T22:45:25.507Z,13.60
2022-08-24T22:47:58.312Z,16.10
2022-08-24T22:50:32.753Z,15.50
2022-08-24T22:53:05.392Z,14.80
2022-08-24T22:55:38.893Z,16.70
2022-08-24T22:58:11.104Z,14.30
2022-08-24T23:00:43.043Z,12.30
2022-08-24T23:03:15.265Z,15.00
2022-08-24T23:05:49.216Z,13.50
2022-08-24T23:08:21.438Z,14.80
2022-08-24T23:10:53.434Z,14.90
2022-08-24T23:13:30.163Z,14.00
2022-08-24T23:16:02.623Z,17.40
2022-08-24T23:18:54.088Z,18.60
2022-08-24T23:21:28.061Z,13.40
2022-08-24T23:24:01.605Z,17.30
2022-08-24T23:26:34.055Z,15.30
2022-08-24T23:29:09.778Z,15.20
2022-08-24T23:31:43.074Z,14.10
2022-08-24T23:34:15.665Z,16.70
2022-08-24T23:36:48.275Z,13.00
2022-08-24T23:39:22.112Z,15.40
2022-08-24T23:41:54.787Z,13.80
2022-08-24T23:44:28.805Z,18.20
2022-08-24T23:47:04.196Z,15.90
2022-08-24T23:49:37.335Z,15.80
2022-08-24T23:52:09.900Z,14.70
2022-08-24T23:55:20.248Z,14.90
2022-08-24T23:57:55.652Z,15.80
